sensor_id;sensor_type;location;lat;lon;timestamp;P1;durP1;ratioP1;P2;durP2;ratioP2
79456;SDS011;69494;43.654;3.884;2023-05-07T00:01:03;5.38;;;2.05;;
79456;SDS011;69494;43.654;3.884;2023-05-07T00:03:30;4.30;;;1.77;;
79456;SDS011;69494;43.654;3.884;2023-05-07T00:05:56;5.38;;;1.98;;
79456;SDS011;69494;43.654;3.884;2023-05-07T00:08:21;5.22;;;2.05;;
79456;SDS011;69494;43.654;3.884;2023-05-07T00:10:47;5.13;;;2.05;;
79456;SDS011;69494;43.654;3.884;2023-05-07T00:13:12;6.50;;;1.90;;
79456;SDS011;69494;43.654;3.884;2023-05-07T00:15:38;3.85;;;1.67;;
79456;SDS011;69494;43.654;3.884;2023-05-07T00:18:04;4.35;;;1.83;;
79456;SDS011;69494;43.654;3.884;2023-05-07T00:20:29;3.60;;;1.48;;
79456;SDS011;69494;43.654;3.884;2023-05-07T00:22:55;3.70;;;1.70;;
79456;SDS011;69494;43.654;3.884;2023-05-07T00:25:20;3.25;;;1.60;;
79456;SDS011;69494;43.654;3.884;2023-05-07T00:27:46;3.83;;;1.58;;
79456;SDS011;69494;43.654;3.884;2023-05-07T00:30:11;3.88;;;1.63;;
79456;SDS011;69494;43.654;3.884;2023-05-07T00:32:37;4.05;;;1.85;;
79456;SDS011;69494;43.654;3.884;2023-05-07T00:35:03;4.82;;;1.40;;
79456;SDS011;69494;43.654;3.884;2023-05-07T00:37:29;3.95;;;1.70;;
79456;SDS011;69494;43.654;3.884;2023-05-07T00:39:55;3.45;;;1.50;;
79456;SDS011;69494;43.654;3.884;2023-05-07T00:42:20;4.05;;;1.65;;
79456;SDS011;69494;43.654;3.884;2023-05-07T00:44:46;4.53;;;1.88;;
79456;SDS011;69494;43.654;3.884;2023-05-07T00:47:12;4.05;;;1.50;;
79456;SDS011;69494;43.654;3.884;2023-05-07T00:49:39;4.10;;;1.77;;
79456;SDS011;69494;43.654;3.884;2023-05-07T00:52:07;3.95;;;1.48;;
79456;SDS011;69494;43.654;3.884;2023-05-07T00:54:36;5.10;;;1.75;;
79456;SDS011;69494;43.654;3.884;2023-05-07T00:57:02;5.43;;;1.70;;
79456;SDS011;69494;43.654;3.884;2023-05-07T00:59:28;4.45;;;1.60;;
79456;SDS011;69494;43.654;3.884;2023-05-07T01:06:46;2.92;;;1.40;;
79456;SDS011;69494;43.654;3.884;2023-05-07T01:09:12;4.50;;;1.92;;
79456;SDS011;69494;43.654;3.884;2023-05-07T01:11:38;4.15;;;1.80;;
79456;SDS011;69494;43.654;3.884;2023-05-07T01:16:30;3.45;;;1.40;;
79456;SDS011;69494;43.654;3.884;2023-05-07T01:18:56;3.78;;;1.73;;
79456;SDS011;69494;43.654;3.884;2023-05-07T01:21:24;4.22;;;1.70;;
79456;SDS011;69494;43.654;3.884;2023-05-07T01:23:51;3.78;;;1.67;;
79456;SDS011;69494;43.654;3.884;2023-05-07T01:26:18;3.38;;;1.60;;
79456;SDS011;69494;43.654;3.884;2023-05-07T01:28:44;3.80;;;1.55;;
79456;SDS011;69494;43.654;3.884;2023-05-07T01:31:10;2.90;;;1.40;;
79456;SDS011;69494;43.654;3.884;2023-05-07T01:33:38;3.55;;;1.48;;
79456;SDS011;69494;43.654;3.884;2023-05-07T01:36:06;4.45;;;1.40;;
79456;SDS011;69494;43.654;3.884;2023-05-07T01:40:59;4.45;;;1.70;;
79456;SDS011;69494;43.654;3.884;2023-05-07T01:43:25;3.47;;;1.48;;
79456;SDS011;69494;43.654;3.884;2023-05-07T01:45:50;3.58;;;1.48;;
79456;SDS011;69494;43.654;3.884;2023-05-07T01:48:17;3.70;;;1.55;;
79456;SDS011;69494;43.654;3.884;2023-05-07T01:50:43;5.32;;;1.95;;
79456;SDS011;69494;43.654;3.884;2023-05-07T01:53:09;4.22;;;1.67;;
79456;SDS011;69494;43.654;3.884;2023-05-07T01:55:35;4.00;;;1.52;;
79456;SDS011;69494;43.654;3.884;2023-05-07T01:58:02;4.45;;;1.73;;
79456;SDS011;69494;43.654;3.884;2023-05-07T02:00:27;3.42;;;1.42;;
79456;SDS011;69494;43.654;3.884;2023-05-07T02:02:53;4.25;;;1.45;;
79456;SDS011;69494;43.654;3.884;2023-05-07T02:05:19;4.35;;;1.73;;
79456;SDS011;69494;43.654;3.884;2023-05-07T02:07:45;4.63;;;1.58;;
79456;SDS011;69494;43.654;3.884;2023-05-07T02:10:10;4.30;;;1.58;;
79456;SDS011;69494;43.654;3.884;2023-05-07T02:12:35;4.47;;;1.70;;
79456;SDS011;69494;43.654;3.884;2023-05-07T02:15:01;5.40;;;1.58;;
79456;SDS011;69494;43.654;3.884;2023-05-07T02:17:26;5.30;;;1.85;;
79456;SDS011;69494;43.654;3.884;2023-05-07T02:19:52;3.58;;;1.48;;
79456;SDS011;69494;43.654;3.884;2023-05-07T02:22:18;4.03;;;1.75;;
79456;SDS011;69494;43.654;3.884;2023-05-07T02:24:43;5.22;;;1.60;;
79456;SDS011;69494;43.654;3.884;2023-05-07T02:27:09;3.42;;;1.42;;
79456;SDS011;69494;43.654;3.884;2023-05-07T02:29:35;2.97;;;1.30;;
79456;SDS011;69494;43.654;3.884;2023-05-07T02:32:00;3.50;;;1.40;;
79456;SDS011;69494;43.654;3.884;2023-05-07T02:34:26;2.72;;;1.27;;
79456;SDS011;69494;43.654;3.884;2023-05-07T02:36:52;4.35;;;1.60;;
79456;SDS011;69494;43.654;3.884;2023-05-07T02:39:17;3.05;;;1.35;;
79456;SDS011;69494;43.654;3.884;2023-05-07T02:41:42;3.80;;;1.40;;
79456;SDS011;69494;43.654;3.884;2023-05-07T02:44:08;2.72;;;1.13;;
79456;SDS011;69494;43.654;3.884;2023-05-07T02:46:34;3.80;;;1.48;;
79456;SDS011;69494;43.654;3.884;2023-05-07T02:48:59;2.63;;;1.27;;
79456;SDS011;69494;43.654;3.884;2023-05-07T02:51:25;3.45;;;1.45;;
79456;SDS011;69494;43.654;3.884;2023-05-07T02:53:50;3.28;;;1.15;;
79456;SDS011;69494;43.654;3.884;2023-05-07T02:56:16;3.92;;;1.30;;
79456;SDS011;69494;43.654;3.884;2023-05-07T02:58:41;3.50;;;1.20;;
79456;SDS011;69494;43.654;3.884;2023-05-07T03:01:07;3.15;;;1.20;;
79456;SDS011;69494;43.654;3.884;2023-05-07T03:03:33;3.83;;;1.30;;
79456;SDS011;69494;43.654;3.884;2023-05-07T03:05:59;2.85;;;1.30;;
79456;SDS011;69494;43.654;3.884;2023-05-07T03:08:25;3.10;;;1.48;;
79456;SDS011;69494;43.654;3.884;2023-05-07T03:10:50;3.63;;;1.40;;
79456;SDS011;69494;43.654;3.884;2023-05-07T03:13:16;3.70;;;1.23;;
79456;SDS011;69494;43.654;3.884;2023-05-07T03:15:42;3.40;;;1.63;;
79456;SDS011;69494;43.654;3.884;2023-05-07T03:18:07;6.63;;;1.63;;
79456;SDS011;69494;43.654;3.884;2023-05-07T03:20:32;2.63;;;1.10;;
79456;SDS011;69494;43.654;3.884;2023-05-07T03:22:58;4.20;;;1.30;;
79456;SDS011;69494;43.654;3.884;2023-05-07T03:25:23;4.20;;;1.35;;
79456;SDS011;69494;43.654;3.884;2023-05-07T03:27:49;2.63;;;1.25;;
79456;SDS011;69494;43.654;3.884;2023-05-07T03:30:14;3.67;;;1.42;;
79456;SDS011;69494;43.654;3.884;2023-05-07T03:32:40;3.60;;;1.35;;
79456;SDS011;69494;43.654;3.884;2023-05-07T03:35:05;7.40;;;1.70;;
79456;SDS011;69494;43.654;3.884;2023-05-07T03:37:31;3.83;;;1.25;;
79456;SDS011;69494;43.654;3.884;2023-05-07T03:39:56;3.47;;;1.67;;
79456;SDS011;69494;43.654;3.884;2023-05-07T03:42:22;3.08;;;1.55;;
79456;SDS011;69494;43.654;3.884;2023-05-07T03:44:47;3.08;;;1.33;;
79456;SDS011;69494;43.654;3.884;2023-05-07T03:47:13;3.25;;;1.35;;
79456;SDS011;69494;43.654;3.884;2023-05-07T03:49:38;4.00;;;1.30;;
79456;SDS011;69494;43.654;3.884;2023-05-07T03:52:04;2.83;;;1.30;;
79456;SDS011;69494;43.654;3.884;2023-05-07T03:54:30;3.50;;;1.50;;
79456;SDS011;69494;43.654;3.884;2023-05-07T03:56:55;3.38;;;1.30;;
79456;SDS011;69494;43.654;3.884;2023-05-07T03:59:21;2.95;;;1.33;;
79456;SDS011;69494;43.654;3.884;2023-05-07T04:01:47;2.85;;;1.25;;
79456;SDS011;69494;43.654;3.884;2023-05-07T04:04:13;3.30;;;1.40;;
79456;SDS011;69494;43.654;3.884;2023-05-07T04:06:39;6.22;;;1.60;;
79456;SDS011;69494;43.654;3.884;2023-05-07T04:09:05;6.25;;;1.80;;
79456;SDS011;69494;43.654;3.884;2023-05-07T04:11:31;3.72;;;1.40;;
79456;SDS011;69494;43.654;3.884;2023-05-07T04:13:56;4.07;;;1.70;;
79456;SDS011;69494;43.654;3.884;2023-05-07T04:16:22;3.25;;;1.40;;
79456;SDS011;69494;43.654;3.884;2023-05-07T04:18:47;3.80;;;1.45;;
79456;SDS011;69494;43.654;3.884;2023-05-07T04:21:19;3.40;;;1.20;;
79456;SDS011;69494;43.654;3.884;2023-05-07T04:23:46;3.35;;;1.33;;
79456;SDS011;69494;43.654;3.884;2023-05-07T04:31:04;3.38;;;1.38;;
79456;SDS011;69494;43.654;3.884;2023-05-07T04:33:30;2.85;;;1.40;;
79456;SDS011;69494;43.654;3.884;2023-05-07T04:35:56;4.43;;;1.58;;
79456;SDS011;69494;43.654;3.884;2023-05-07T04:38:22;3.33;;;1.33;;
79456;SDS011;69494;43.654;3.884;2023-05-07T04:40:48;3.17;;;1.52;;
79456;SDS011;69494;43.654;3.884;2023-05-07T04:43:14;3.50;;;1.50;;
79456;SDS011;69494;43.654;3.884;2023-05-07T04:45:39;3.00;;;1.40;;
79456;SDS011;69494;43.654;3.884;2023-05-07T04:52:57;3.58;;;1.45;;
79456;SDS011;69494;43.654;3.884;2023-05-07T04:55:22;3.15;;;1.33;;
79456;SDS011;69494;43.654;3.884;2023-05-07T04:57:48;3.33;;;1.33;;
79456;SDS011;69494;43.654;3.884;2023-05-07T05:00:13;3.78;;;1.40;;
79456;SDS011;69494;43.654;3.884;2023-05-07T05:02:40;5.55;;;1.65;;
79456;SDS011;69494;43.654;3.884;2023-05-07T05:05:06;4.78;;;1.63;;
79456;SDS011;69494;43.654;3.884;2023-05-07T05:07:32;3.97;;;1.35;;
79456;SDS011;69494;43.654;3.884;2023-05-07T05:09:57;3.22;;;1.30;;
79456;SDS011;69494;43.654;3.884;2023-05-07T05:12:23;4.43;;;1.70;;
79456;SDS011;69494;43.654;3.884;2023-05-07T05:14:48;3.70;;;1.63;;
79456;SDS011;69494;43.654;3.884;2023-05-07T05:17:13;5.25;;;1.70;;
79456;SDS011;69494;43.654;3.884;2023-05-07T05:19:39;4.30;;;1.75;;
79456;SDS011;69494;43.654;3.884;2023-05-07T05:22:04;4.82;;;1.42;;
79456;SDS011;69494;43.654;3.884;2023-05-07T05:24:30;2.92;;;1.38;;
79456;SDS011;69494;43.654;3.884;2023-05-07T05:26:56;3.40;;;1.42;;
79456;SDS011;69494;43.654;3.884;2023-05-07T05:29:22;3.63;;;1.40;;
79456;SDS011;69494;43.654;3.884;2023-05-07T05:31:47;3.63;;;1.70;;
79456;SDS011;69494;43.654;3.884;2023-05-07T05:34:13;3.90;;;1.67;;
79456;SDS011;69494;43.654;3.884;2023-05-07T05:36:38;3.38;;;1.70;;
79456;SDS011;69494;43.654;3.884;2023-05-07T05:39:04;4.07;;;1.80;;
79456;SDS011;69494;43.654;3.884;2023-05-07T05:41:29;3.97;;;1.65;;
79456;SDS011;69494;43.654;3.884;2023-05-07T05:43:55;3.20;;;1.45;;
79456;SDS011;69494;43.654;3.884;2023-05-07T05:46:21;3.65;;;1.65;;
79456;SDS011;69494;43.654;3.884;2023-05-07T05:48:46;3.58;;;1.67;;
79456;SDS011;69494;43.654;3.884;2023-05-07T05:51:12;3.83;;;1.33;;
79456;SDS011;69494;43.654;3.884;2023-05-07T05:53:37;2.80;;;1.38;;
79456;SDS011;69494;43.654;3.884;2023-05-07T05:56:02;3.70;;;1.50;;
79456;SDS011;69494;43.654;3.884;2023-05-07T05:58:28;3.97;;;1.77;;
79456;SDS011;69494;43.654;3.884;2023-05-07T06:00:54;2.92;;;1.45;;
79456;SDS011;69494;43.654;3.884;2023-05-07T06:03:19;4.80;;;2.20;;
79456;SDS011;69494;43.654;3.884;2023-05-07T06:05:45;3.83;;;1.90;;
79456;SDS011;69494;43.654;3.884;2023-05-07T06:08:10;6.60;;;2.20;;
79456;SDS011;69494;43.654;3.884;2023-05-07T06:10:36;3.80;;;1.77;;
79456;SDS011;69494;43.654;3.884;2023-05-07T06:13:02;3.58;;;2.00;;
79456;SDS011;69494;43.654;3.884;2023-05-07T06:15:28;4.53;;;2.13;;
79456;SDS011;69494;43.654;3.884;2023-05-07T06:17:53;5.85;;;2.53;;
79456;SDS011;69494;43.654;3.884;2023-05-07T06:20:20;3.75;;;1.95;;
79456;SDS011;69494;43.654;3.884;2023-05-07T06:22:46;5.00;;;2.08;;
79456;SDS011;69494;43.654;3.884;2023-05-07T06:25:11;3.95;;;1.92;;
79456;SDS011;69494;43.654;3.884;2023-05-07T06:27:36;3.83;;;1.88;;
79456;SDS011;69494;43.654;3.884;2023-05-07T06:30:02;5.03;;;2.55;;
79456;SDS011;69494;43.654;3.884;2023-05-07T06:32:28;6.13;;;2.33;;
79456;SDS011;69494;43.654;3.884;2023-05-07T06:34:53;4.75;;;2.13;;
79456;SDS011;69494;43.654;3.884;2023-05-07T06:37:18;3.50;;;1.75;;
79456;SDS011;69494;43.654;3.884;2023-05-07T06:39:44;4.53;;;1.67;;
79456;SDS011;69494;43.654;3.884;2023-05-07T06:42:09;3.85;;;1.50;;
79456;SDS011;69494;43.654;3.884;2023-05-07T06:44:35;4.38;;;2.05;;
79456;SDS011;69494;43.654;3.884;2023-05-07T06:47:00;4.70;;;2.20;;
79456;SDS011;69494;43.654;3.884;2023-05-07T06:49:26;6.95;;;2.60;;
79456;SDS011;69494;43.654;3.884;2023-05-07T06:51:51;4.82;;;2.13;;
79456;SDS011;69494;43.654;3.884;2023-05-07T06:54:17;4.10;;;1.75;;
79456;SDS011;69494;43.654;3.884;2023-05-07T06:56:43;6.00;;;2.00;;
79456;SDS011;69494;43.654;3.884;2023-05-07T06:59:09;4.22;;;2.03;;
79456;SDS011;69494;43.654;3.884;2023-05-07T07:01:34;3.90;;;1.85;;
79456;SDS011;69494;43.654;3.884;2023-05-07T07:04:00;4.53;;;2.17;;
79456;SDS011;69494;43.654;3.884;2023-05-07T07:06:25;4.82;;;1.98;;
79456;SDS011;69494;43.654;3.884;2023-05-07T07:08:51;4.55;;;2.17;;
79456;SDS011;69494;43.654;3.884;2023-05-07T07:11:16;3.72;;;1.85;;
79456;SDS011;69494;43.654;3.884;2023-05-07T07:13:41;6.47;;;2.00;;
79456;SDS011;69494;43.654;3.884;2023-05-07T07:16:08;4.95;;;2.10;;
79456;SDS011;69494;43.654;3.884;2023-05-07T07:18:33;3.83;;;1.85;;
79456;SDS011;69494;43.654;3.884;2023-05-07T07:20:59;3.88;;;1.70;;
79456;SDS011;69494;43.654;3.884;2023-05-07T07:23:24;4.43;;;1.80;;
79456;SDS011;69494;43.654;3.884;2023-05-07T07:25:50;4.68;;;1.77;;
79456;SDS011;69494;43.654;3.884;2023-05-07T07:28:15;6.90;;;2.45;;
79456;SDS011;69494;43.654;3.884;2023-05-07T07:30:42;4.18;;;1.90;;
79456;SDS011;69494;43.654;3.884;2023-05-07T07:33:07;4.43;;;2.00;;
79456;SDS011;69494;43.654;3.884;2023-05-07T07:35:32;4.85;;;1.88;;
79456;SDS011;69494;43.654;3.884;2023-05-07T07:37:58;5.50;;;2.15;;
79456;SDS011;69494;43.654;3.884;2023-05-07T07:40:24;4.78;;;2.22;;
79456;SDS011;69494;43.654;3.884;2023-05-07T07:42:50;8.02;;;2.17;;
79456;SDS011;69494;43.654;3.884;2023-05-07T07:45:16;6.07;;;2.05;;
79456;SDS011;69494;43.654;3.884;2023-05-07T07:47:41;4.47;;;1.92;;
79456;SDS011;69494;43.654;3.884;2023-05-07T07:50:07;4.50;;;2.08;;
79456;SDS011;69494;43.654;3.884;2023-05-07T07:52:33;5.45;;;1.75;;
79456;SDS011;69494;43.654;3.884;2023-05-07T07:54:58;4.40;;;2.20;;
79456;SDS011;69494;43.654;3.884;2023-05-07T07:57:24;3.90;;;1.77;;
79456;SDS011;69494;43.654;3.884;2023-05-07T07:59:49;4.10;;;1.70;;
79456;SDS011;69494;43.654;3.884;2023-05-07T08:02:15;4.30;;;1.70;;
79456;SDS011;69494;43.654;3.884;2023-05-07T08:04:41;4.07;;;1.60;;
79456;SDS011;69494;43.654;3.884;2023-05-07T08:07:08;3.35;;;1.50;;
79456;SDS011;69494;43.654;3.884;2023-05-07T08:09:34;3.78;;;1.58;;
79456;SDS011;69494;43.654;3.884;2023-05-07T08:12:00;3.63;;;1.40;;
79456;SDS011;69494;43.654;3.884;2023-05-07T08:14:26;2.50;;;1.20;;
79456;SDS011;69494;43.654;3.884;2023-05-07T08:16:53;3.40;;;1.40;;
79456;SDS011;69494;43.654;3.884;2023-05-07T08:19:18;3.08;;;1.23;;
79456;SDS011;69494;43.654;3.884;2023-05-07T08:21:44;3.53;;;1.23;;
79456;SDS011;69494;43.654;3.884;2023-05-07T08:24:10;3.03;;;1.15;;
79456;SDS011;69494;43.654;3.884;2023-05-07T08:26:36;3.00;;;1.20;;
79456;SDS011;69494;43.654;3.884;2023-05-07T08:29:04;3.08;;;1.30;;
79456;SDS011;69494;43.654;3.884;2023-05-07T08:31:29;2.22;;;1.00;;
79456;SDS011;69494;43.654;3.884;2023-05-07T08:33:55;2.55;;;1.10;;
79456;SDS011;69494;43.654;3.884;2023-05-07T08:36:20;3.95;;;1.40;;
79456;SDS011;69494;43.654;3.884;2023-05-07T08:38:46;1.45;;;0.80;;
79456;SDS011;69494;43.654;3.884;2023-05-07T08:41:11;2.22;;;0.90;;
79456;SDS011;69494;43.654;3.884;2023-05-07T08:43:36;2.13;;;0.80;;
79456;SDS011;69494;43.654;3.884;2023-05-07T08:46:05;2.15;;;0.77;;
79456;SDS011;69494;43.654;3.884;2023-05-07T08:48:33;2.22;;;1.10;;
79456;SDS011;69494;43.654;3.884;2023-05-07T08:51:00;2.90;;;1.08;;
79456;SDS011;69494;43.654;3.884;2023-05-07T08:53:26;3.13;;;1.05;;
79456;SDS011;69494;43.654;3.884;2023-05-07T08:55:51;2.88;;;1.20;;
79456;SDS011;69494;43.654;3.884;2023-05-07T08:58:17;2.40;;;1.00;;
79456;SDS011;69494;43.654;3.884;2023-05-07T09:00:43;2.45;;;1.00;;
79456;SDS011;69494;43.654;3.884;2023-05-07T09:03:08;2.85;;;1.08;;
79456;SDS011;69494;43.654;3.884;2023-05-07T09:05:37;3.42;;;0.98;;
79456;SDS011;69494;43.654;3.884;2023-05-07T09:08:03;2.42;;;1.00;;
79456;SDS011;69494;43.654;3.884;2023-05-07T09:12:57;2.50;;;0.90;;
79456;SDS011;69494;43.654;3.884;2023-05-07T09:15:22;2.83;;;1.15;;
79456;SDS011;69494;43.654;3.884;2023-05-07T09:17:48;3.03;;;1.10;;
79456;SDS011;69494;43.654;3.884;2023-05-07T09:20:13;3.40;;;1.00;;
79456;SDS011;69494;43.654;3.884;2023-05-07T09:22:39;2.50;;;0.90;;
79456;SDS011;69494;43.654;3.884;2023-05-07T09:25:06;3.95;;;0.98;;
79456;SDS011;69494;43.654;3.884;2023-05-07T09:27:32;2.28;;;0.93;;
79456;SDS011;69494;43.654;3.884;2023-05-07T09:29:58;2.63;;;1.00;;
79456;SDS011;69494;43.654;3.884;2023-05-07T09:32:24;3.25;;;1.00;;
79456;SDS011;69494;43.654;3.884;2023-05-07T09:34:50;2.38;;;0.90;;
79456;SDS011;69494;43.654;3.884;2023-05-07T09:37:16;5.13;;;0.88;;
79456;SDS011;69494;43.654;3.884;2023-05-07T09:39:42;2.45;;;0.88;;
79456;SDS011;69494;43.654;3.884;2023-05-07T09:42:08;0.95;;;0.65;;
79456;SDS011;69494;43.654;3.884;2023-05-07T09:44:34;1.83;;;0.73;;
79456;SDS011;69494;43.654;3.884;2023-05-07T09:47:00;2.67;;;0.95;;
79456;SDS011;69494;43.654;3.884;2023-05-07T09:49:29;2.30;;;0.98;;
79456;SDS011;69494;43.654;3.884;2023-05-07T09:51:55;3.30;;;1.20;;
79456;SDS011;69494;43.654;3.884;2023-05-07T09:54:21;1.60;;;0.70;;
79456;SDS011;69494;43.654;3.884;2023-05-07T09:56:50;2.05;;;0.73;;
79456;SDS011;69494;43.654;3.884;2023-05-07T09:59:17;2.15;;;0.90;;
79456;SDS011;69494;43.654;3.884;2023-05-07T10:01:43;2.63;;;0.93;;
79456;SDS011;69494;43.654;3.884;2023-05-07T10:04:10;1.52;;;0.70;;
79456;SDS011;69494;43.654;3.884;2023-05-07T10:06:36;0.90;;;0.52;;
79456;SDS011;69494;43.654;3.884;2023-05-07T10:09:03;2.72;;;0.88;;
79456;SDS011;69494;43.654;3.884;2023-05-07T10:11:31;2.33;;;0.90;;
79456;SDS011;69494;43.654;3.884;2023-05-07T10:13:58;1.67;;;0.80;;
79456;SDS011;69494;43.654;3.884;2023-05-07T10:16:23;3.88;;;0.90;;
79456;SDS011;69494;43.654;3.884;2023-05-07T10:21:17;3.05;;;1.10;;
79456;SDS011;69494;43.654;3.884;2023-05-07T10:23:49;2.25;;;0.93;;
79456;SDS011;69494;43.654;3.884;2023-05-07T10:26:15;1.52;;;0.80;;
79456;SDS011;69494;43.654;3.884;2023-05-07T10:28:44;2.25;;;0.88;;
79456;SDS011;69494;43.654;3.884;2023-05-07T10:31:33;2.85;;;0.70;;
79456;SDS011;69494;43.654;3.884;2023-05-07T10:34:07;2.88;;;0.88;;
79456;SDS011;69494;43.654;3.884;2023-05-07T10:36:38;2.65;;;1.00;;
79456;SDS011;69494;43.654;3.884;2023-05-07T10:39:04;2.85;;;1.10;;
79456;SDS011;69494;43.654;3.884;2023-05-07T10:41:31;2.10;;;0.82;;
79456;SDS011;69494;43.654;3.884;2023-05-07T10:43:56;2.03;;;0.70;;
79456;SDS011;69494;43.654;3.884;2023-05-07T10:46:22;2.63;;;0.90;;
79456;SDS011;69494;43.654;3.884;2023-05-07T10:51:25;2.35;;;1.00;;
79456;SDS011;69494;43.654;3.884;2023-05-07T10:56:35;1.90;;;0.85;;
79456;SDS011;69494;43.654;3.884;2023-05-07T10:59:44;1.08;;;0.70;;
79456;SDS011;69494;43.654;3.884;2023-05-07T11:02:06;1.85;;;0.80;;
79456;SDS011;69494;43.654;3.884;2023-05-07T11:04:34;1.98;;;0.80;;
79456;SDS011;69494;43.654;3.884;2023-05-07T11:15:11;1.15;;;0.50;;
79456;SDS011;69494;43.654;3.884;2023-05-07T11:17:53;1.27;;;0.60;;
79456;SDS011;69494;43.654;3.884;2023-05-07T11:26:02;1.17;;;0.60;;
79456;SDS011;69494;43.654;3.884;2023-05-07T11:28:30;1.52;;;0.73;;
79456;SDS011;69494;43.654;3.884;2023-05-07T11:30:56;2.00;;;0.70;;
79456;SDS011;69494;43.654;3.884;2023-05-07T11:33:23;1.63;;;0.55;;
79456;SDS011;69494;43.654;3.884;2023-05-07T11:35:54;0.95;;;0.40;;
79456;SDS011;69494;43.654;3.884;2023-05-07T11:38:20;1.33;;;0.65;;
79456;SDS011;69494;43.654;3.884;2023-05-07T11:40:55;1.40;;;0.60;;
79456;SDS011;69494;43.654;3.884;2023-05-07T11:43:24;1.83;;;0.60;;
79456;SDS011;69494;43.654;3.884;2023-05-07T11:45:50;1.23;;;0.60;;
79456;SDS011;69494;43.654;3.884;2023-05-07T11:48:16;2.90;;;0.60;;
79456;SDS011;69494;43.654;3.884;2023-05-07T11:50:49;0.80;;;0.50;;
79456;SDS011;69494;43.654;3.884;2023-05-07T11:53:16;1.05;;;0.50;;
79456;SDS011;69494;43.654;3.884;2023-05-07T11:55:42;0.75;;;0.50;;
79456;SDS011;69494;43.654;3.884;2023-05-07T11:58:10;1.60;;;0.55;;
79456;SDS011;69494;43.654;3.884;2023-05-07T12:00:37;1.10;;;0.60;;
79456;SDS011;69494;43.654;3.884;2023-05-07T12:03:05;1.88;;;0.68;;
79456;SDS011;69494;43.654;3.884;2023-05-07T12:05:31;1.65;;;0.60;;
79456;SDS011;69494;43.654;3.884;2023-05-07T12:07:59;0.73;;;0.52;;
79456;SDS011;69494;43.654;3.884;2023-05-07T12:10:25;0.98;;;0.60;;
79456;SDS011;69494;43.654;3.884;2023-05-07T12:12:50;0.82;;;0.50;;
79456;SDS011;69494;43.654;3.884;2023-05-07T12:15:16;1.77;;;0.70;;
79456;SDS011;69494;43.654;3.884;2023-05-07T12:17:42;2.60;;;0.70;;
79456;SDS011;69494;43.654;3.884;2023-05-07T12:20:08;2.70;;;1.15;;
79456;SDS011;69494;43.654;3.884;2023-05-07T12:22:35;0.52;;;0.50;;
79456;SDS011;69494;43.654;3.884;2023-05-07T12:27:27;1.00;;;0.45;;
79456;SDS011;69494;43.654;3.884;2023-05-07T12:29:53;1.08;;;0.50;;
79456;SDS011;69494;43.654;3.884;2023-05-07T12:32:19;1.25;;;0.50;;
79456;SDS011;69494;43.654;3.884;2023-05-07T12:34:46;2.25;;;0.70;;
79456;SDS011;69494;43.654;3.884;2023-05-07T12:37:14;1.50;;;0.52;;
79456;SDS011;69494;43.654;3.884;2023-05-07T12:39:49;1.80;;;0.70;;
79456;SDS011;69494;43.654;3.884;2023-05-07T12:42:32;3.05;;;0.55;;
79456;SDS011;69494;43.654;3.884;2023-05-07T12:45:00;1.33;;;0.60;;
79456;SDS011;69494;43.654;3.884;2023-05-07T12:47:32;2.75;;;0.80;;
79456;SDS011;69494;43.654;3.884;2023-05-07T12:49:58;2.13;;;0.65;;
79456;SDS011;69494;43.654;3.884;2023-05-07T12:52:24;1.33;;;0.50;;
79456;SDS011;69494;43.654;3.884;2023-05-07T12:54:50;0.95;;;0.50;;
79456;SDS011;69494;43.654;3.884;2023-05-07T12:57:15;1.33;;;0.63;;
79456;SDS011;69494;43.654;3.884;2023-05-07T12:59:45;2.13;;;0.50;;
79456;SDS011;69494;43.654;3.884;2023-05-07T13:02:10;0.82;;;0.50;;
79456;SDS011;69494;43.654;3.884;2023-05-07T13:04:36;1.88;;;0.63;;
79456;SDS011;69494;43.654;3.884;2023-05-07T13:07:02;2.35;;;0.75;;
79456;SDS011;69494;43.654;3.884;2023-05-07T13:09:28;1.48;;;0.40;;
79456;SDS011;69494;43.654;3.884;2023-05-07T13:11:56;2.63;;;0.60;;
79456;SDS011;69494;43.654;3.884;2023-05-07T13:14:24;1.55;;;0.73;;
79456;SDS011;69494;43.654;3.884;2023-05-07T13:16:50;0.88;;;0.52;;
79456;SDS011;69494;43.654;3.884;2023-05-07T13:19:15;1.65;;;0.52;;
79456;SDS011;69494;43.654;3.884;2023-05-07T13:21:41;1.85;;;0.70;;
79456;SDS011;69494;43.654;3.884;2023-05-07T13:24:06;2.20;;;0.47;;
79456;SDS011;69494;43.654;3.884;2023-05-07T13:26:32;1.30;;;0.60;;
79456;SDS011;69494;43.654;3.884;2023-05-07T13:28:57;1.45;;;0.63;;
79456;SDS011;69494;43.654;3.884;2023-05-07T13:31:23;0.93;;;0.45;;
79456;SDS011;69494;43.654;3.884;2023-05-07T13:33:49;1.38;;;0.63;;
79456;SDS011;69494;43.654;3.884;2023-05-07T13:36:15;1.92;;;0.50;;
79456;SDS011;69494;43.654;3.884;2023-05-07T13:38:40;1.55;;;0.47;;
79456;SDS011;69494;43.654;3.884;2023-05-07T13:41:05;1.70;;;0.57;;
79456;SDS011;69494;43.654;3.884;2023-05-07T13:43:31;2.25;;;0.73;;
79456;SDS011;69494;43.654;3.884;2023-05-07T13:45:58;1.05;;;0.43;;
79456;SDS011;69494;43.654;3.884;2023-05-07T13:48:24;1.13;;;0.45;;
79456;SDS011;69494;43.654;3.884;2023-05-07T13:50:49;2.05;;;0.52;;
79456;SDS011;69494;43.654;3.884;2023-05-07T13:53:15;2.40;;;0.40;;
79456;SDS011;69494;43.654;3.884;2023-05-07T13:55:43;1.35;;;0.60;;
79456;SDS011;69494;43.654;3.884;2023-05-07T13:58:09;1.20;;;0.70;;
79456;SDS011;69494;43.654;3.884;2023-05-07T14:00:34;3.30;;;0.60;;
79456;SDS011;69494;43.654;3.884;2023-05-07T14:03:00;6.15;;;1.58;;
79456;SDS011;69494;43.654;3.884;2023-05-07T14:05:25;2.05;;;0.63;;
79456;SDS011;69494;43.654;3.884;2023-05-07T14:07:52;1.65;;;0.60;;
79456;SDS011;69494;43.654;3.884;2023-05-07T14:10:19;1.88;;;0.57;;
79456;SDS011;69494;43.654;3.884;2023-05-07T14:12:45;2.08;;;0.73;;
79456;SDS011;69494;43.654;3.884;2023-05-07T14:15:10;3.58;;;0.60;;
79456;SDS011;69494;43.654;3.884;2023-05-07T14:17:36;2.47;;;0.68;;
79456;SDS011;69494;43.654;3.884;2023-05-07T14:20:02;1.42;;;0.50;;
79456;SDS011;69494;43.654;3.884;2023-05-07T14:22:28;1.48;;;0.40;;
79456;SDS011;69494;43.654;3.884;2023-05-07T14:24:53;2.13;;;0.75;;
79456;SDS011;69494;43.654;3.884;2023-05-07T14:27:19;1.23;;;0.60;;
79456;SDS011;69494;43.654;3.884;2023-05-07T14:29:44;1.75;;;0.52;;
79456;SDS011;69494;43.654;3.884;2023-05-07T14:32:10;1.00;;;0.43;;
79456;SDS011;69494;43.654;3.884;2023-05-07T14:34:36;2.00;;;0.60;;
79456;SDS011;69494;43.654;3.884;2023-05-07T14:37:01;1.75;;;0.60;;
79456;SDS011;69494;43.654;3.884;2023-05-07T14:39:26;1.35;;;0.60;;
79456;SDS011;69494;43.654;3.884;2023-05-07T14:41:52;1.67;;;0.45;;
79456;SDS011;69494;43.654;3.884;2023-05-07T14:44:19;2.40;;;0.60;;
79456;SDS011;69494;43.654;3.884;2023-05-07T14:46:45;1.58;;;0.60;;
79456;SDS011;69494;43.654;3.884;2023-05-07T14:49:10;1.17;;;0.52;;
79456;SDS011;69494;43.654;3.884;2023-05-07T14:51:41;4.03;;;0.90;;
79456;SDS011;69494;43.654;3.884;2023-05-07T14:54:10;4.65;;;0.73;;
79456;SDS011;69494;43.654;3.884;2023-05-07T14:56:36;4.18;;;0.70;;
79456;SDS011;69494;43.654;3.884;2023-05-07T14:59:02;1.10;;;0.60;;
79456;SDS011;69494;43.654;3.884;2023-05-07T15:01:28;1.65;;;0.65;;
79456;SDS011;69494;43.654;3.884;2023-05-07T15:03:54;1.98;;;0.60;;
79456;SDS011;69494;43.654;3.884;2023-05-07T15:06:20;3.17;;;0.80;;
79456;SDS011;69494;43.654;3.884;2023-05-07T15:08:46;1.85;;;0.60;;
79456;SDS011;69494;43.654;3.884;2023-05-07T15:11:11;0.60;;;0.35;;
79456;SDS011;69494;43.654;3.884;2023-05-07T15:13:36;1.35;;;0.50;;
79456;SDS011;69494;43.654;3.884;2023-05-07T15:16:02;1.65;;;0.60;;
79456;SDS011;69494;43.654;3.884;2023-05-07T15:18:27;1.30;;;0.60;;
79456;SDS011;69494;43.654;3.884;2023-05-07T15:20:53;0.82;;;0.40;;
79456;SDS011;69494;43.654;3.884;2023-05-07T15:23:18;2.88;;;0.73;;
79456;SDS011;69494;43.654;3.884;2023-05-07T15:25:43;1.45;;;0.70;;
79456;SDS011;69494;43.654;3.884;2023-05-07T15:28:09;2.10;;;0.65;;